Weather at John'S Field

Public forecast

Using degrees Fahrenheit for public forecast. Weather courtesy of forecast.io.

Closest aviation weather report (METAR) to John'S Field

Closest report is Taylor County Airport, 11.0 nm (20.4 km) WSW. Retrieved 2021/06/19 02:35 UTC (4 minutes ago):

KMDZ 190235Z AUTO 00000KT 10SM CLR 19/09 A2979 RMK AO2 T01860089

Closest aviation forecast (TAF) to John'S Field

Closest forecast is Wausau Downtown Airport, 23.0 nm (42.6 km) SE. Retrieved 2021-06-19 00:45 UTC (2 hours ago):

TAF KAUW 182341Z 1900/1924 26011G20KT P6SM SKC FM190100 26005KT P6SM SKC FM190400 34004KT P6SM VCSH BKN060 FM190900 35004KT P6SM BKN080 FM191500 36004KT P6SM SCT090 FM192200 29005KT P6SM SCT150